createdAt,value
2018-08-25T00:01:14.077Z,17.20
2018-08-25T00:03:43.242Z,17.10
2018-08-25T00:06:12.341Z,17.20
2018-08-25T00:08:41.448Z,16.90
2018-08-25T00:11:10.851Z,17.00
2018-08-25T00:13:39.942Z,17.00
2018-08-25T00:16:11.993Z,17.10
2018-08-25T00:18:41.060Z,17.00
2018-08-25T00:21:10.152Z,17.20
2018-08-25T00:23:39.351Z,17.30
2018-08-25T00:26:08.658Z,17.50
2018-08-25T00:28:37.727Z,17.50
2018-08-25T00:31:12.196Z,17.60
2018-08-25T00:33:41.272Z,17.60
2018-08-25T00:36:10.358Z,17.60
2018-08-25T00:38:39.406Z,17.60
2018-08-25T00:41:08.480Z,17.70
2018-08-25T00:43:37.547Z,17.70
2018-08-25T00:46:06.646Z,17.70
2018-08-25T00:48:35.732Z,17.70
2018-08-25T00:51:04.932Z,17.70
2018-08-25T00:53:34.605Z,17.70
2018-08-25T00:56:03.735Z,17.80
2018-08-25T00:58:32.878Z,17.80
2018-08-25T01:01:02.298Z,17.80
2018-08-25T01:03:31.374Z,17.80
2018-08-25T01:06:00.586Z,17.80
2018-08-25T01:08:29.671Z,17.80
2018-08-25T01:10:58.781Z,17.70
2018-08-25T01:13:28.042Z,17.70
2018-08-25T01:15:57.103Z,17.70
2018-08-25T01:18:26.179Z,17.70
2018-08-25T01:20:55.243Z,17.70
2018-08-25T01:23:24.395Z,17.70
2018-08-25T01:25:53.442Z,17.60
2018-08-25T01:28:22.516Z,17.60
2018-08-25T01:30:51.577Z,17.50
2018-08-25T01:33:20.855Z,17.60
2018-08-25T01:35:49.931Z,17.60
2018-08-25T01:38:19.083Z,17.50
2018-08-25T01:40:48.150Z,17.50
2018-08-25T01:43:17.263Z,17.60
2018-08-25T01:45:46.338Z,17.60
2018-08-25T01:48:15.450Z,17.60
2018-08-25T01:50:44.527Z,17.60
2018-08-25T01:53:13.663Z,17.50
2018-08-25T01:55:42.802Z,17.50
2018-08-25T01:58:11.899Z,17.50
2018-08-25T02:00:40.990Z,17.50
2018-08-25T02:03:10.202Z,17.40
2018-08-25T02:05:39.275Z,17.40
2018-08-25T02:08:08.374Z,17.40
2018-08-25T02:10:37.456Z,17.40
2018-08-25T02:13:06.638Z,17.50
2018-08-25T02:15:35.714Z,17.50
2018-08-25T02:18:04.848Z,17.60
2018-08-25T02:20:33.934Z,17.60
2018-08-25T02:23:03.028Z,17.40
2018-08-25T02:25:32.098Z,17.30
2018-08-25T02:28:01.225Z,17.20
2018-08-25T02:30:30.342Z,17.20
2018-08-25T02:32:59.521Z,17.20
2018-08-25T02:35:28.608Z,17.30
2018-08-25T02:37:57.671Z,17.10
2018-08-25T02:40:26.783Z,17.10
2018-08-25T02:42:55.914Z,17.00
2018-08-25T02:45:25.395Z,17.00
2018-08-25T02:47:55.179Z,17.00
2018-08-25T02:50:24.498Z,16.90
2018-08-25T02:52:53.678Z,16.80
2018-08-25T02:55:22.995Z,16.80
2018-08-25T02:57:52.075Z,16.60
2018-08-25T03:00:21.155Z,16.70
2018-08-25T03:02:50.210Z,16.60
2018-08-25T03:05:19.302Z,16.50
2018-08-25T03:07:48.460Z,16.50
2018-08-25T03:10:17.535Z,16.50
2018-08-25T03:12:46.851Z,16.50
2018-08-25T03:15:15.931Z,16.70
2018-08-25T03:17:45.025Z,16.60
2018-08-25T03:20:14.078Z,16.50
2018-08-25T03:22:43.440Z,16.50
2018-08-25T03:25:12.540Z,16.50
2018-08-25T03:27:41.582Z,16.60
2018-08-25T03:30:10.671Z,16.50
2018-08-25T03:32:39.870Z,16.60
2018-08-25T03:35:08.994Z,16.50
2018-08-25T03:37:38.069Z,16.60
2018-08-25T03:40:07.187Z,16.70
2018-08-25T03:42:36.258Z,16.80
2018-08-25T03:45:05.398Z,16.80
2018-08-25T03:47:34.461Z,16.80
2018-08-25T03:50:03.587Z,16.80
2018-08-25T03:52:32.689Z,16.70
2018-08-25T03:55:01.814Z,16.70
2018-08-25T03:57:30.905Z,16.60
2018-08-25T03:59:59.986Z,16.60
2018-08-25T04:02:29.187Z,16.60
2018-08-25T04:04:58.266Z,16.60
2018-08-25T04:07:27.374Z,16.60
2018-08-25T04:09:56.474Z,16.30
2018-08-25T04:12:25.570Z,16.00
2018-08-25T04:15:01.423Z,16.20
2018-08-25T04:17:30.475Z,16.30
2018-08-25T04:19:59.578Z,16.30
2018-08-25T04:22:28.675Z,16.30
2018-08-25T04:24:57.739Z,16.30
2018-08-25T04:27:26.911Z,16.30
2018-08-25T04:29:56.034Z,16.20
2018-08-25T04:32:25.150Z,16.10
2018-08-25T04:34:54.229Z,15.90
2018-08-25T04:37:23.306Z,16.40
2018-08-25T04:39:52.374Z,17.00
2018-08-25T04:42:21.519Z,17.20
2018-08-25T04:44:50.590Z,17.10
2018-08-25T04:47:19.810Z,17.00
2018-08-25T04:49:48.975Z,17.10
2018-08-25T04:52:18.107Z,17.40
2018-08-25T04:54:47.151Z,17.30
2018-08-25T04:57:16.281Z,17.40
2018-08-25T04:59:45.356Z,17.20
2018-08-25T05:02:14.418Z,17.20
2018-08-25T05:04:43.502Z,17.10
2018-08-25T05:07:12.587Z,17.10
2018-08-25T05:09:41.651Z,17.20
2018-08-25T05:12:10.744Z,16.90
2018-08-25T05:14:39.786Z,16.80
2018-08-25T05:17:08.882Z,16.80
2018-08-25T05:19:37.947Z,16.80
2018-08-25T05:22:07.095Z,16.80
2018-08-25T05:24:36.114Z,16.90
2018-08-25T05:27:05.215Z,16.90
2018-08-25T05:29:34.285Z,17.00
2018-08-25T05:32:03.519Z,17.00
2018-08-25T05:34:32.557Z,17.10
2018-08-25T05:37:01.640Z,17.10
2018-08-25T05:39:30.720Z,17.10
2018-08-25T05:42:00.642Z,17.10
2018-08-25T05:44:29.708Z,17.10
2018-08-25T05:46:58.762Z,17.10
2018-08-25T05:49:27.962Z,17.10
2018-08-25T05:51:57.063Z,17.10
2018-08-25T05:54:26.162Z,17.20
2018-08-25T05:56:55.210Z,17.10
2018-08-25T05:59:24.295Z,17.20
2018-08-25T06:01:53.566Z,17.20
2018-08-25T06:04:22.741Z,17.20
2018-08-25T06:06:51.806Z,17.20
2018-08-25T06:09:20.865Z,17.10
2018-08-25T06:11:49.918Z,17.10
2018-08-25T06:14:18.999Z,17.20
2018-08-25T06:16:48.078Z,17.30
2018-08-25T06:19:17.227Z,17.20
2018-08-25T06:21:46.482Z,17.20
2018-08-25T06:24:15.562Z,17.40
2018-08-25T06:26:44.629Z,17.30
2018-08-25T06:29:13.694Z,17.40
2018-08-25T06:31:42.866Z,17.40
2018-08-25T06:34:11.994Z,17.50
2018-08-25T06:36:41.107Z,17.50
2018-08-25T06:39:10.847Z,17.60
2018-08-25T06:41:40.012Z,17.70
2018-08-25T06:44:09.126Z,17.70
2018-08-25T06:46:38.216Z,17.70
2018-08-25T06:49:07.327Z,17.80
2018-08-25T06:51:36.387Z,17.90
2018-08-25T06:54:05.699Z,18.00
2018-08-25T06:56:34.837Z,17.90
2018-08-25T06:59:04.146Z,18.00
2018-08-25T07:01:33.327Z,18.10
2018-08-25T07:04:02.428Z,18.10
2018-08-25T07:06:32.088Z,18.00
2018-08-25T07:09:01.180Z,17.90
2018-08-25T07:11:30.317Z,17.90
2018-08-25T07:13:59.391Z,18.00
2018-08-25T07:16:28.438Z,18.00
2018-08-25T07:18:57.529Z,18.10
2018-08-25T07:21:26.918Z,18.10
2018-08-25T07:23:56.018Z,18.10
2018-08-25T07:26:25.090Z,18.10
2018-08-25T07:28:54.145Z,18.10
2018-08-25T07:31:23.239Z,18.30
2018-08-25T07:33:52.356Z,18.20
2018-08-25T07:36:21.451Z,18.20
2018-08-25T07:38:50.554Z,18.30
2018-08-25T07:41:19.701Z,18.40
2018-08-25T07:43:48.805Z,18.50
2018-08-25T07:46:17.922Z,18.40
2018-08-25T07:48:47.002Z,18.50
2018-08-25T07:51:16.107Z,18.50
2018-08-25T07:53:50.767Z,18.60
2018-08-25T07:56:20.151Z,18.80
2018-08-25T07:58:49.256Z,18.80
2018-08-25T08:01:18.839Z,18.80
2018-08-25T08:03:47.930Z,18.80
2018-08-25T08:06:17.071Z,18.80
2018-08-25T08:08:46.158Z,18.80
2018-08-25T08:11:15.265Z,18.90
2018-08-25T08:13:44.352Z,18.80
2018-08-25T08:16:13.483Z,18.60
2018-08-25T08:18:42.586Z,18.60
2018-08-25T08:21:11.687Z,18.70
2018-08-25T08:23:40.766Z,18.60
2018-08-25T08:26:09.878Z,18.60
2018-08-25T08:28:38.971Z,18.60
2018-08-25T08:31:08.131Z,18.60
2018-08-25T08:33:37.222Z,18.70
2018-08-25T08:36:06.436Z,18.60
2018-08-25T08:38:37.151Z,18.60
2018-08-25T08:41:06.599Z,18.50
2018-08-25T08:43:35.798Z,18.50
2018-08-25T08:46:05.992Z,18.60
2018-08-25T08:48:35.058Z,18.50
2018-08-25T08:51:04.305Z,18.50
2018-08-25T08:53:39.874Z,18.40
2018-08-25T08:56:08.940Z,18.30
2018-08-25T08:58:38.011Z,18.30
2018-08-25T09:01:07.092Z,18.30
2018-08-25T09:03:36.177Z,18.20
2018-08-25T09:06:05.279Z,18.20
2018-08-25T09:08:34.342Z,18.20
2018-08-25T09:11:03.446Z,18.10
2018-08-25T09:13:32.552Z,18.10
2018-08-25T09:16:01.618Z,18.10
2018-08-25T09:18:30.690Z,18.00
2018-08-25T09:20:59.883Z,18.10
2018-08-25T09:23:28.962Z,18.00
2018-08-25T09:25:58.016Z,17.90
2018-08-25T09:28:27.112Z,17.90
2018-08-25T09:30:56.272Z,18.00
2018-08-25T09:33:25.354Z,18.00
2018-08-25T09:35:54.519Z,18.00
2018-08-25T09:38:23.512Z,18.00
2018-08-25T09:40:52.622Z,18.00
2018-08-25T09:43:21.803Z,18.10
2018-08-25T09:45:51.230Z,18.00
2018-08-25T09:48:20.307Z,18.10
2018-08-25T09:50:49.418Z,18.20
2018-08-25T09:53:18.512Z,18.30
2018-08-25T09:55:47.580Z,18.30
2018-08-25T09:58:16.671Z,18.50
2018-08-25T10:00:45.783Z,18.70
2018-08-25T10:03:14.863Z,18.70
2018-08-25T10:05:43.936Z,18.70
2018-08-25T10:08:13.003Z,18.60
2018-08-25T10:10:42.116Z,18.60
2018-08-25T10:13:11.166Z,18.60
2018-08-25T10:15:40.252Z,18.70
2018-08-25T10:18:09.331Z,18.80
2018-08-25T10:20:38.391Z,18.80
2018-08-25T10:23:07.585Z,18.90
2018-08-25T10:25:36.607Z,19.10
2018-08-25T10:28:05.830Z,19.20
2018-08-25T10:30:35.155Z,19.20
2018-08-25T10:33:04.287Z,19.10
2018-08-25T10:35:33.423Z,19.00
2018-08-25T10:38:02.495Z,19.00
2018-08-25T10:40:31.664Z,18.80
2018-08-25T10:43:00.739Z,18.70
2018-08-25T10:45:29.862Z,18.70
2018-08-25T10:47:58.939Z,18.50
2018-08-25T10:50:28.046Z,18.50
2018-08-25T10:52:57.179Z,18.40
2018-08-25T10:55:26.285Z,18.30
2018-08-25T10:57:55.498Z,18.10
2018-08-25T11:00:24.946Z,17.80
2018-08-25T11:02:54.035Z,17.60
2018-08-25T11:05:23.150Z,17.60
2018-08-25T11:07:52.227Z,17.60
2018-08-25T11:10:21.391Z,17.70
2018-08-25T11:12:50.466Z,17.60
2018-08-25T11:15:19.562Z,17.50
2018-08-25T11:17:48.647Z,17.50
2018-08-25T11:20:17.906Z,17.50
2018-08-25T11:22:46.980Z,17.30
2018-08-25T11:25:16.103Z,17.20
2018-08-25T11:27:45.164Z,17.30
2018-08-25T11:30:14.273Z,17.10
2018-08-25T11:32:43.428Z,17.00
2018-08-25T11:35:12.531Z,16.70
2018-08-25T11:37:41.660Z,16.70
2018-08-25T11:40:10.866Z,16.60
2018-08-25T11:42:39.954Z,16.60
2018-08-25T11:45:09.119Z,16.60
2018-08-25T11:47:38.207Z,16.60
2018-08-25T11:50:07.469Z,16.70
2018-08-25T11:52:36.558Z,16.60
2018-08-25T11:55:06.080Z,16.60
2018-08-25T11:57:35.156Z,16.50
2018-08-25T12:00:04.701Z,16.50
2018-08-25T12:02:33.801Z,16.40
2018-08-25T12:05:02.883Z,16.30
2018-08-25T12:07:32.015Z,16.40
2018-08-25T12:10:01.110Z,16.30
2018-08-25T12:12:30.211Z,16.20
2018-08-25T12:14:59.322Z,16.30
2018-08-25T12:17:28.419Z,16.30
2018-08-25T12:19:57.550Z,16.20
2018-08-25T12:22:26.651Z,16.30
2018-08-25T12:24:55.738Z,16.30
2018-08-25T12:27:24.869Z,16.30
2018-08-25T12:29:53.970Z,16.30
2018-08-25T12:32:23.111Z,16.20
2018-08-25T12:34:52.260Z,16.30
2018-08-25T12:37:21.345Z,16.30
2018-08-25T12:39:50.444Z,16.30
2018-08-25T12:42:19.543Z,16.20
2018-08-25T12:44:48.600Z,16.30
2018-08-25T12:47:20.838Z,16.30
2018-08-25T12:49:49.906Z,16.20
2018-08-25T12:52:18.995Z,16.30
2018-08-25T12:54:48.419Z,16.20
2018-08-25T12:57:17.507Z,16.30
2018-08-25T12:59:46.727Z,16.30
2018-08-25T13:02:16.032Z,16.20
2018-08-25T13:04:45.119Z,16.20
2018-08-25T13:07:15.064Z,16.10
2018-08-25T13:09:44.826Z,16.20
2018-08-25T13:12:14.251Z,16.20
2018-08-25T13:14:43.772Z,16.20
2018-08-25T13:17:12.890Z,16.10
2018-08-25T13:19:42.052Z,16.10
2018-08-25T13:22:11.119Z,16.10
2018-08-25T13:24:40.167Z,15.90
2018-08-25T13:27:09.283Z,15.90
2018-08-25T13:29:38.358Z,15.90
2018-08-25T13:32:07.474Z,15.90
2018-08-25T13:34:36.550Z,15.90
2018-08-25T13:37:05.631Z,16.00
2018-08-25T13:39:34.799Z,15.90
2018-08-25T13:42:03.874Z,15.90
2018-08-25T13:44:32.957Z,15.90
2018-08-25T13:47:02.031Z,15.90
2018-08-25T13:49:31.222Z,16.00
2018-08-25T13:52:00.271Z,15.90
2018-08-25T13:54:29.340Z,15.90
2018-08-25T13:56:58.397Z,15.90
2018-08-25T13:59:27.555Z,15.90
2018-08-25T14:01:56.594Z,15.90
2018-08-25T14:04:25.691Z,16.00
2018-08-25T14:06:54.744Z,15.90
2018-08-25T14:09:23.812Z,15.90
2018-08-25T14:11:52.855Z,15.80
2018-08-25T14:14:21.929Z,15.80
2018-08-25T14:16:50.995Z,15.70
2018-08-25T14:19:20.127Z,15.80
2018-08-25T14:21:49.170Z,15.80
2018-08-25T14:24:18.251Z,15.70
2018-08-25T14:26:47.303Z,15.60
2018-08-25T14:29:16.472Z,15.60
2018-08-25T14:31:45.759Z,15.60
2018-08-25T14:34:14.883Z,15.60
2018-08-25T14:36:44.046Z,15.60
2018-08-25T14:39:13.165Z,15.60
2018-08-25T14:41:42.355Z,15.60
2018-08-25T14:44:11.381Z,15.60
2018-08-25T14:46:40.454Z,15.50
2018-08-25T14:49:09.550Z,15.50
2018-08-25T14:51:38.638Z,15.60
2018-08-25T14:54:07.761Z,15.50
2018-08-25T14:56:36.835Z,15.60
2018-08-25T14:59:05.982Z,15.50
2018-08-25T15:01:35.070Z,15.60
2018-08-25T15:04:04.186Z,15.60
2018-08-25T15:06:33.258Z,15.50
2018-08-25T15:09:02.363Z,15.60
2018-08-25T15:11:31.448Z,15.60
2018-08-25T15:14:00.555Z,15.60
2018-08-25T15:16:29.633Z,15.60
2018-08-25T15:18:58.840Z,15.60
2018-08-25T15:21:27.891Z,15.70
2018-08-25T15:23:57.130Z,15.60
2018-08-25T15:26:26.303Z,15.70
2018-08-25T15:28:55.466Z,15.70
2018-08-25T15:31:24.567Z,15.70
2018-08-25T15:33:53.644Z,15.60
2018-08-25T15:36:22.738Z,15.70
2018-08-25T15:38:51.931Z,15.70
2018-08-25T15:41:21.008Z,15.70
2018-08-25T15:43:50.066Z,15.70
2018-08-25T15:46:19.144Z,15.70
2018-08-25T15:48:48.397Z,15.60
2018-08-25T15:51:17.467Z,15.60
2018-08-25T15:53:46.515Z,15.50
2018-08-25T15:56:15.608Z,15.60
2018-08-25T15:58:44.667Z,15.60
2018-08-25T16:01:13.755Z,15.60
2018-08-25T16:03:42.838Z,15.60
2018-08-25T16:06:11.918Z,15.60
2018-08-25T16:08:41.029Z,15.50
2018-08-25T16:11:10.102Z,15.50
2018-08-25T16:13:39.163Z,15.40
2018-08-25T16:16:08.238Z,15.40
2018-08-25T16:18:37.307Z,15.50
2018-08-25T16:21:06.515Z,15.50
2018-08-25T16:23:35.582Z,15.50
2018-08-25T16:26:04.679Z,15.60
2018-08-25T16:28:33.875Z,15.50
2018-08-25T16:31:02.971Z,15.50
2018-08-25T16:33:32.064Z,15.50
2018-08-25T16:36:01.133Z,15.50
2018-08-25T16:38:30.225Z,15.60
2018-08-25T16:40:59.878Z,15.70
2018-08-25T16:43:29.012Z,15.70
2018-08-25T16:45:58.130Z,15.50
2018-08-25T16:48:27.399Z,15.50
2018-08-25T16:50:56.480Z,15.60
2018-08-25T16:53:25.571Z,15.50
2018-08-25T16:55:54.780Z,15.50
2018-08-25T16:58:23.806Z,15.40
2018-08-25T17:00:52.919Z,15.40
2018-08-25T17:03:21.975Z,15.50
2018-08-25T17:05:51.073Z,15.40
2018-08-25T17:08:20.144Z,15.40
2018-08-25T17:10:49.310Z,15.30
2018-08-25T17:13:18.463Z,15.30
2018-08-25T17:15:47.542Z,15.20
2018-08-25T17:18:16.671Z,15.30
2018-08-25T17:20:45.723Z,15.30
2018-08-25T17:23:15.122Z,15.20
2018-08-25T17:25:44.559Z,15.20
2018-08-25T17:28:14.064Z,15.30
2018-08-25T17:30:49.988Z,15.30
2018-08-25T17:33:19.219Z,15.20
2018-08-25T17:35:48.681Z,15.20
2018-08-25T17:38:19.011Z,15.20
2018-08-25T17:40:48.498Z,15.30
2018-08-25T17:43:17.626Z,15.30
2018-08-25T17:45:46.723Z,15.50
2018-08-25T17:48:15.896Z,15.40
2018-08-25T17:50:44.976Z,15.30
2018-08-25T17:53:14.098Z,15.20
2018-08-25T17:55:43.203Z,15.20
2018-08-25T17:58:12.298Z,15.20
2018-08-25T18:00:41.388Z,15.20
2018-08-25T18:03:10.495Z,15.20
2018-08-25T18:05:39.570Z,14.90
2018-08-25T18:08:11.802Z,14.80
2018-08-25T18:10:40.896Z,14.60
2018-08-25T18:13:09.991Z,14.40
2018-08-25T18:15:39.094Z,14.30
2018-08-25T18:18:08.236Z,14.40
2018-08-25T18:20:37.321Z,14.50
2018-08-25T18:23:06.458Z,14.30
2018-08-25T18:25:35.554Z,14.30
2018-08-25T18:28:04.770Z,14.20
2018-08-25T18:30:33.855Z,14.20
2018-08-25T18:33:02.975Z,13.90
2018-08-25T18:35:32.031Z,14.10
2018-08-25T18:38:01.156Z,14.00
2018-08-25T18:40:30.238Z,14.00
2018-08-25T18:42:59.318Z,14.10
2018-08-25T18:45:28.403Z,14.00
2018-08-25T18:47:57.542Z,13.80
2018-08-25T18:50:26.653Z,13.90
2018-08-25T18:52:55.735Z,13.90
2018-08-25T18:55:24.834Z,13.80
2018-08-25T18:57:53.915Z,13.70
2018-08-25T19:00:23.023Z,13.90
2018-08-25T19:02:52.119Z,13.90
2018-08-25T19:05:21.219Z,13.90
2018-08-25T19:07:50.304Z,13.90
2018-08-25T19:10:19.400Z,13.90
2018-08-25T19:12:48.480Z,13.70
2018-08-25T19:15:17.763Z,13.90
2018-08-25T19:17:46.872Z,13.80
2018-08-25T19:20:16.005Z,13.70
2018-08-25T19:22:45.164Z,13.60
2018-08-25T19:25:14.355Z,13.50
2018-08-25T19:27:43.511Z,13.50
2018-08-25T19:30:12.624Z,13.50
2018-08-25T19:32:41.728Z,13.50
2018-08-25T19:35:11.071Z,13.50
2018-08-25T19:37:40.301Z,13.50
2018-08-25T19:40:09.643Z,13.50
2018-08-25T19:42:38.715Z,13.40
2018-08-25T19:45:07.934Z,13.40
2018-08-25T19:47:38.825Z,13.40
2018-08-25T19:50:08.850Z,13.40
2018-08-25T19:52:38.557Z,13.50
2018-08-25T19:55:07.743Z,13.50
2018-08-25T19:57:37.249Z,13.50
2018-08-25T20:00:06.853Z,13.50
2018-08-25T20:02:36.982Z,13.40
2018-08-25T20:05:11.301Z,13.40
2018-08-25T20:07:40.330Z,13.30
2018-08-25T20:10:09.437Z,13.10
2018-08-25T20:12:38.655Z,13.10
2018-08-25T20:15:07.764Z,13.20
2018-08-25T20:17:36.848Z,13.10
2018-08-25T20:20:06.183Z,13.10
2018-08-25T20:22:35.243Z,13.20
2018-08-25T20:25:04.417Z,13.20
2018-08-25T20:27:33.558Z,13.20
2018-08-25T20:30:02.622Z,13.20
2018-08-25T20:32:31.726Z,13.20
2018-08-25T20:35:00.818Z,13.10
2018-08-25T20:37:29.920Z,13.10
2018-08-25T20:39:58.975Z,13.10
2018-08-25T20:42:28.045Z,13.20
2018-08-25T20:44:57.134Z,13.20
2018-08-25T20:47:26.298Z,13.20
2018-08-25T20:49:55.414Z,13.20
2018-08-25T20:52:24.530Z,13.30
2018-08-25T20:54:53.590Z,13.00
2018-08-25T20:57:22.738Z,12.90
2018-08-25T20:59:51.794Z,13.00
2018-08-25T21:02:20.866Z,13.10
2018-08-25T21:04:49.934Z,13.20
2018-08-25T21:07:19.200Z,13.30
2018-08-25T21:09:48.258Z,13.30
2018-08-25T21:12:17.387Z,13.30
2018-08-25T21:14:46.455Z,13.30
2018-08-25T21:17:15.534Z,13.30
2018-08-25T21:19:44.602Z,13.30
2018-08-25T21:22:14.222Z,13.30
2018-08-25T21:24:43.498Z,13.40
2018-08-25T21:27:12.648Z,13.40
2018-08-25T21:29:41.710Z,13.50
2018-08-25T21:32:10.815Z,13.40
2018-08-25T21:34:39.864Z,13.30
2018-08-25T21:37:10.174Z,13.30
2018-08-25T21:39:40.096Z,13.30
2018-08-25T21:42:09.172Z,13.30
2018-08-25T21:44:38.227Z,13.30
2018-08-25T21:47:07.527Z,13.30
2018-08-25T21:49:36.585Z,13.30
2018-08-25T21:52:05.662Z,13.40
2018-08-25T21:54:34.734Z,13.40
2018-08-25T21:57:03.839Z,13.40
2018-08-25T21:59:32.895Z,13.50
2018-08-25T22:02:01.990Z,13.40
2018-08-25T22:04:31.048Z,13.40
2018-08-25T22:07:00.135Z,13.40
2018-08-25T22:09:29.218Z,13.50
2018-08-25T22:11:58.290Z,13.50
2018-08-25T22:14:27.362Z,13.40
2018-08-25T22:16:56.509Z,13.40
2018-08-25T22:19:25.610Z,13.50
2018-08-25T22:21:54.675Z,13.40
2018-08-25T22:24:23.750Z,13.40
2018-08-25T22:26:52.836Z,13.50
2018-08-25T22:29:21.975Z,13.50
2018-08-25T22:31:51.030Z,13.40
2018-08-25T22:34:20.148Z,13.30
2018-08-25T22:36:50.035Z,13.50
2018-08-25T22:39:19.261Z,13.50
2018-08-25T22:41:49.764Z,13.40
2018-08-25T22:44:19.342Z,13.40
2018-08-25T22:46:48.740Z,13.30
2018-08-25T22:49:17.862Z,13.30
2018-08-25T22:51:46.922Z,13.20
2018-08-25T22:54:15.986Z,13.10
2018-08-25T22:56:45.332Z,13.10
2018-08-25T22:59:14.747Z,13.00
2018-08-25T23:01:44.211Z,13.00
2018-08-25T23:04:13.976Z,12.90
2018-08-25T23:06:43.219Z,12.90
2018-08-25T23:09:13.239Z,13.00
2018-08-25T23:11:42.995Z,13.00
2018-08-25T23:14:12.926Z,12.90
2018-08-25T23:16:43.732Z,12.80
2018-08-25T23:19:13.965Z,12.80
2018-08-25T23:21:43.219Z,12.80
2018-08-25T23:24:12.403Z,12.80
2018-08-25T23:26:43.110Z,12.90
2018-08-25T23:29:12.291Z,12.80
2018-08-25T23:31:42.644Z,12.90
2018-08-25T23:34:12.057Z,12.80
2018-08-25T23:36:43.196Z,12.70
2018-08-25T23:39:12.371Z,12.50
2018-08-25T23:41:43.399Z,12.50
2018-08-25T23:44:12.483Z,12.50
2018-08-25T23:46:41.679Z,12.40
2018-08-25T23:49:10.758Z,12.50
2018-08-25T23:51:39.811Z,12.40
2018-08-25T23:54:08.866Z,12.30
2018-08-25T23:56:38.034Z,12.30
2018-08-25T23:59:07.098Z,12.30
